Piripa, Brazil
Current Conditions -  °F | °C
As of 2:00 PM on Thursday 27 Nov 2014 (Local Time) from SBQV Reporting Station
Few Clouds Few Clouds  
Wind Chill: 84°   Ceiling: Unl
Heat Index: 85°   Visibility: 6mi
Dew Point: 63°   Wind: 7mph
Humidity: 48%   Direction: 40°NE
Pressure: 30.03"   Gusts: NA
Location:  14.94°S, 41.72°W
Report Text: SBQV 271700Z 04006KT 9999 FEW025 29/17 Q1017
Loading
Personal Weather Stations






























Interactive Weather Map New forecast layout! Learn more

10-Day Weather Forecast

Advertisements
Track Severe Weather on mobile